createdAt,value
2022-12-22T00:00:01.811Z,100135.22
2022-12-22T00:02:29.022Z,100129.28
2022-12-22T00:04:50.904Z,100123.50
2022-12-22T00:07:11.583Z,100130.97
2022-12-22T00:09:32.276Z,100122.75
2022-12-22T00:11:52.965Z,100110.16
2022-12-22T00:14:13.679Z,100107.09
2022-12-22T00:16:33.952Z,100107.41
2022-12-22T00:18:54.145Z,100110.06
2022-12-22T00:21:14.672Z,100102.25
2022-12-22T00:23:35.330Z,100098.84
2022-12-22T00:25:56.889Z,100104.72
2022-12-22T00:28:17.886Z,100100.44
2022-12-22T00:30:41.317Z,100106.44
2022-12-22T00:33:04.699Z,100099.16
2022-12-22T00:35:31.849Z,100098.19
2022-12-22T00:37:56.158Z,100104.31
2022-12-22T00:40:20.325Z,100101.22
2022-12-22T00:42:41.765Z,100095.72
2022-12-22T00:45:01.978Z,100093.84
2022-12-22T00:47:22.704Z,100093.91
2022-12-22T00:49:45.145Z,100095.56
2022-12-22T00:52:05.657Z,100090.41
2022-12-22T00:54:31.695Z,100096.31
2022-12-22T00:56:52.243Z,100096.16
2022-12-22T00:59:15.627Z,100097.25
2022-12-22T01:01:36.370Z,100096.22
2022-12-22T01:03:57.046Z,100093.13
2022-12-22T01:06:20.468Z,100095.78
2022-12-22T01:08:42.050Z,100093.91
2022-12-22T01:11:02.554Z,100089.84
2022-12-22T01:13:31.706Z,100085.66
2022-12-22T01:15:52.167Z,100092.31
2022-12-22T01:18:14.378Z,100090.72
2022-12-22T01:20:34.763Z,100091.81
2022-12-22T01:22:55.342Z,100086.47
2022-12-22T01:25:16.352Z,100095.28
2022-12-22T01:27:36.761Z,100082.59
2022-12-22T01:29:57.161Z,100081.94
2022-12-22T01:32:17.688Z,100080.19
2022-12-22T01:34:44.021Z,100081.31
2022-12-22T01:37:05.619Z,100082.09
2022-12-22T01:39:27.356Z,100084.50
2022-12-22T01:41:49.043Z,100076.50
2022-12-22T01:44:09.865Z,100079.72
2022-12-22T01:47:00.932Z,100079.84
2022-12-22T01:49:21.345Z,100088.13
2022-12-22T01:51:45.759Z,100082.31
2022-12-22T01:54:07.067Z,100076.50
2022-12-22T01:56:30.363Z,100064.47
2022-12-22T01:58:59.969Z,100073.47
2022-12-22T02:01:20.549Z,100068.63
2022-12-22T02:03:42.104Z,100068.88
2022-12-22T02:06:16.470Z,100069.69
2022-12-22T02:08:45.707Z,100063.53
2022-12-22T02:11:41.458Z,100065.19
2022-12-22T02:14:35.660Z,100065.78
2022-12-22T02:17:18.542Z,100068.41
2022-12-22T02:20:15.132Z,100072.31
2022-12-22T02:23:07.388Z,100067.16
2022-12-22T02:25:41.990Z,100077.91
2022-12-22T02:28:06.180Z,100087.41
2022-12-22T02:30:29.342Z,100086.38
2022-12-22T02:32:54.600Z,100089.84
2022-12-22T02:35:15.144Z,100084.63
2022-12-22T02:37:53.858Z,100101.00
2022-12-22T02:40:34.451Z,100095.06
2022-12-22T02:43:37.411Z,100095.59
2022-12-22T02:46:03.620Z,100085.50
2022-12-22T02:48:31.923Z,100086.22
2022-12-22T02:51:06.427Z,100083.84
2022-12-22T02:53:27.686Z,100082.91
2022-12-22T02:55:49.562Z,100076.28
2022-12-22T02:58:10.920Z,100082.44
2022-12-22T03:00:32.016Z,100088.41
2022-12-22T03:02:54.989Z,100086.66
2022-12-22T03:05:15.807Z,100083.34
2022-12-22T03:07:36.168Z,100089.88
2022-12-22T03:09:56.609Z,100084.06
2022-12-22T03:12:17.358Z,100083.84
2022-12-22T03:14:37.903Z,100084.94
2022-12-22T03:16:58.589Z,100081.13
2022-12-22T03:19:18.877Z,100075.34
2022-12-22T03:21:39.271Z,100081.31
2022-12-22T03:24:00.545Z,100082.75
2022-12-22T03:26:02.631Z,100081.00
2022-12-22T03:28:07.575Z,100081.56
2022-12-22T03:30:09.779Z,100078.25
2022-12-22T03:32:13.719Z,100075.94
2022-12-22T03:34:15.846Z,100073.44
2022-12-22T03:36:17.691Z,100076.78
2022-12-22T03:38:19.898Z,100076.94
2022-12-22T03:40:22.023Z,100084.13
2022-12-22T03:42:42.785Z,100079.13
2022-12-22T03:45:03.379Z,100075.56
2022-12-22T03:47:05.331Z,100069.81
2022-12-22T03:49:13.285Z,100072.88
2022-12-22T03:51:15.140Z,100068.00
2022-12-22T03:53:18.132Z,100062.84
2022-12-22T03:55:20.054Z,100061.03
2022-12-22T03:57:21.947Z,100065.38
2022-12-22T03:59:23.835Z,100065.03
2022-12-22T04:01:28.607Z,100062.34
2022-12-22T04:03:30.755Z,100064.63
2022-12-22T04:05:33.636Z,100057.94
2022-12-22T04:07:35.622Z,100054.16
2022-12-22T04:09:57.388Z,100048.47
2022-12-22T04:12:17.512Z,100060.41
2022-12-22T04:14:19.777Z,100054.59
2022-12-22T04:16:22.786Z,100043.97
2022-12-22T04:18:26.658Z,100044.97
2022-12-22T04:20:29.407Z,100049.19
2022-12-22T04:22:31.332Z,100043.97
2022-12-22T04:24:33.205Z,100049.06
2022-12-22T04:26:35.395Z,100050.66
2022-12-22T04:28:37.385Z,100049.75
2022-12-22T04:30:39.261Z,100042.50
2022-12-22T04:32:41.171Z,100040.09
2022-12-22T04:34:44.013Z,100029.13
2022-12-22T04:36:45.957Z,100025.78
2022-12-22T04:38:47.898Z,100020.72
2022-12-22T04:40:50.761Z,100016.81
2022-12-22T04:42:53.754Z,100024.19
2022-12-22T04:44:58.789Z,100028.34
2022-12-22T04:47:00.722Z,100023.38
2022-12-22T04:49:03.680Z,100026.88
2022-12-22T04:51:06.655Z,100031.09
2022-12-22T04:53:08.557Z,100026.66
2022-12-22T04:55:11.454Z,100034.19
2022-12-22T04:57:13.450Z,100029.00
2022-12-22T04:59:15.434Z,100026.44
2022-12-22T05:01:19.306Z,100022.31
2022-12-22T05:03:22.110Z,100019.84
2022-12-22T05:05:24.027Z,100023.06
2022-12-22T05:07:25.944Z,100013.09
2022-12-22T05:09:27.844Z,100011.41
2022-12-22T05:11:31.895Z,100009.09
2022-12-22T05:13:34.053Z,100014.97
2022-12-22T05:15:39.037Z,100007.47
2022-12-22T05:17:40.965Z,100018.38
2022-12-22T05:19:44.829Z,100011.41
2022-12-22T05:21:47.777Z,100005.03
2022-12-22T05:23:50.929Z,100010.09
2022-12-22T05:25:52.965Z,100011.91
2022-12-22T05:27:54.852Z,100014.44
2022-12-22T05:29:56.855Z,100006.00
2022-12-22T05:31:59.766Z,100006.00
2022-12-22T05:34:04.667Z,100000.91
2022-12-22T05:36:07.910Z,100006.75
2022-12-22T05:38:09.854Z,100012.56
2022-12-22T05:40:13.241Z,100009.09
2022-12-22T05:42:36.062Z,100005.88
2022-12-22T05:44:37.958Z,100001.78
2022-12-22T05:46:39.940Z,100006.00
2022-12-22T05:48:45.031Z,99999.31
2022-12-22T05:50:47.174Z,100010.34
2022-12-22T05:52:49.384Z,100012.22
2022-12-22T05:54:51.329Z,100008.75
2022-12-22T05:56:53.216Z,100013.91
2022-12-22T05:58:55.140Z,100012.22
2022-12-22T06:00:58.708Z,100011.38
2022-12-22T06:03:02.811Z,100018.84
2022-12-22T06:05:05.437Z,100022.19
2022-12-22T06:07:09.474Z,100033.16
2022-12-22T06:09:11.350Z,100030.56
2022-12-22T06:11:13.351Z,100033.88
2022-12-22T06:13:15.337Z,100030.84
2022-12-22T06:15:17.356Z,100031.81
2022-12-22T06:17:20.231Z,100031.94
2022-12-22T06:19:23.132Z,100029.41
2022-12-22T06:21:26.253Z,100029.41
2022-12-22T06:23:28.246Z,100032.47
2022-12-22T06:25:31.247Z,100030.09
2022-12-22T06:27:33.264Z,100032.88
2022-12-22T06:29:35.177Z,100047.47
2022-12-22T06:31:37.163Z,100035.69
2022-12-22T06:33:39.136Z,100040.91
2022-12-22T06:35:42.072Z,100051.88
2022-12-22T06:37:45.454Z,100046.72
2022-12-22T06:39:48.460Z,100038.25
2022-12-22T06:42:09.837Z,100036.84
2022-12-22T06:44:11.846Z,100047.75
2022-12-22T06:46:13.762Z,100044.31
2022-12-22T06:48:17.701Z,100045.88
2022-12-22T06:50:19.617Z,100046.00
2022-12-22T06:52:21.566Z,100037.59
2022-12-22T06:54:26.409Z,100043.44
2022-12-22T06:56:29.584Z,100040.13
2022-12-22T06:58:31.462Z,100036.63
2022-12-22T07:00:34.216Z,100031.69
2022-12-22T07:02:36.586Z,100043.66
2022-12-22T07:04:39.881Z,100043.53
2022-12-22T07:06:42.894Z,100053.63
2022-12-22T07:08:50.540Z,100037.31
2022-12-22T07:10:59.198Z,100038.38
2022-12-22T07:13:19.582Z,100036.63
2022-12-22T07:15:21.685Z,100038.53
2022-12-22T07:17:23.633Z,100040.31
2022-12-22T07:19:25.618Z,100031.69
2022-12-22T07:21:27.553Z,100025.72
2022-12-22T07:23:30.905Z,100023.19
2022-12-22T07:25:32.854Z,100011.06
2022-12-22T07:27:34.803Z,100017.28
2022-12-22T07:29:36.923Z,100018.84
2022-12-22T07:31:39.894Z,100008.69
2022-12-22T07:33:48.889Z,100012.09
2022-12-22T07:36:04.525Z,100016.44
2022-12-22T07:38:06.422Z,100013.88
2022-12-22T07:40:09.025Z,100025.13
2022-12-22T07:42:32.080Z,100019.28
2022-12-22T07:44:34.141Z,100017.88
2022-12-22T07:46:39.832Z,100018.63
2022-12-22T07:49:17.141Z,100022.22
2022-12-22T07:51:22.405Z,100013.44
2022-12-22T07:53:27.429Z,100013.75
2022-12-22T07:55:32.262Z,100011.13
2022-12-22T07:57:36.100Z,100002.75
2022-12-22T07:59:40.106Z,100003.78
2022-12-22T08:01:43.475Z,99999.63
2022-12-22T08:03:45.563Z,99985.13
2022-12-22T08:05:47.514Z,99988.97
2022-12-22T08:07:52.994Z,99981.22
2022-12-22T08:09:54.900Z,99975.47
2022-12-22T08:12:00.350Z,99977.56
2022-12-22T08:14:02.589Z,99968.41
2022-12-22T08:16:05.934Z,99964.28
2022-12-22T08:18:08.936Z,99960.06
2022-12-22T08:20:11.398Z,99961.28
2022-12-22T08:22:13.334Z,99961.34
2022-12-22T08:24:16.370Z,99957.25
2022-12-22T08:26:20.055Z,99967.47
2022-12-22T08:28:22.738Z,99967.00
2022-12-22T08:30:25.008Z,99962.75
2022-12-22T08:32:28.545Z,99958.66
2022-12-22T08:34:30.735Z,99971.75
2022-12-22T08:36:40.362Z,99966.09
2022-12-22T08:38:43.253Z,99956.38
2022-12-22T08:40:45.765Z,99959.91
2022-12-22T08:42:52.542Z,99955.91
2022-12-22T08:45:05.764Z,99953.63
2022-12-22T08:47:13.040Z,99949.91
2022-12-22T08:49:19.036Z,99956.31
2022-12-22T08:51:21.070Z,99942.84
2022-12-22T08:54:03.473Z,99958.84
2022-12-22T08:55:55.486Z,99959.13
2022-12-22T08:57:57.509Z,99962.22
2022-12-22T08:59:59.569Z,99971.56
2022-12-22T09:02:05.512Z,99971.00
2022-12-22T09:04:07.638Z,99970.50
2022-12-22T09:06:13.548Z,99976.59
2022-12-22T09:08:15.467Z,99971.53
2022-12-22T09:10:17.457Z,99966.41
2022-12-22T09:12:19.454Z,99968.94
2022-12-22T09:14:22.453Z,99962.94
2022-12-22T09:16:28.080Z,99968.94
2022-12-22T09:18:31.227Z,99963.03
2022-12-22T09:20:34.173Z,99958.81
2022-12-22T09:22:36.130Z,99947.75
2022-12-22T09:24:40.061Z,99941.06
2022-12-22T09:26:42.224Z,99947.19
2022-12-22T09:28:50.531Z,99933.59
2022-12-22T09:30:54.977Z,99936.25
2022-12-22T09:32:56.944Z,99934.63
2022-12-22T09:34:58.857Z,99927.50
2022-12-22T09:37:00.810Z,99932.78
2022-12-22T09:39:07.271Z,99919.00
2022-12-22T09:41:32.270Z,99917.88
2022-12-22T09:43:35.407Z,99916.97
2022-12-22T09:45:37.420Z,99913.41
2022-12-22T09:47:41.639Z,99911.34
2022-12-22T09:49:45.934Z,99912.59
2022-12-22T09:51:56.041Z,99901.53
2022-12-22T09:54:01.174Z,99897.91
2022-12-22T09:56:03.541Z,99902.25
2022-12-22T09:58:17.424Z,99908.03
2022-12-22T10:00:28.731Z,99900.09
2022-12-22T10:02:56.572Z,99902.84
2022-12-22T10:05:28.960Z,99898.03
2022-12-22T10:07:42.810Z,99886.44
2022-12-22T10:09:52.285Z,99893.28
2022-12-22T10:11:56.899Z,99888.28
2022-12-22T10:13:59.813Z,99875.69
2022-12-22T10:16:01.918Z,99873.19
2022-12-22T10:18:17.091Z,99870.47
2022-12-22T10:20:22.330Z,99881.00
2022-12-22T10:22:32.282Z,99868.16
2022-12-22T10:24:36.287Z,99870.00
2022-12-22T10:26:38.751Z,99864.81
2022-12-22T10:28:50.953Z,99859.72
2022-12-22T10:31:11.771Z,99862.91
2022-12-22T10:33:18.698Z,99860.28
2022-12-22T10:35:20.659Z,99848.22
2022-12-22T10:37:31.527Z,99848.97
2022-12-22T10:39:38.756Z,99842.13
2022-12-22T10:41:44.871Z,99842.97
2022-12-22T10:44:11.887Z,99844.63
2022-12-22T10:46:14.208Z,99840.28
2022-12-22T10:48:16.902Z,99826.59
2022-12-22T10:50:21.521Z,99818.09
2022-12-22T10:52:32.824Z,99813.06
2022-12-22T10:54:36.451Z,99812.09
2022-12-22T10:56:38.419Z,99812.88
2022-12-22T10:58:53.942Z,99804.31
2022-12-22T11:01:05.913Z,99799.38
2022-12-22T11:03:12.436Z,99796.75
2022-12-22T11:05:14.489Z,99795.91
2022-12-22T11:07:18.641Z,99800.47
2022-12-22T11:09:33.854Z,99796.06
2022-12-22T11:11:52.176Z,99798.44
2022-12-22T11:13:54.421Z,99803.72
2022-12-22T11:16:09.058Z,99792.25
2022-12-22T11:18:45.925Z,99785.63
2022-12-22T11:21:22.021Z,99776.59
2022-12-22T11:23:41.671Z,99771.06
2022-12-22T11:26:31.439Z,99775.56
2022-12-22T11:28:50.823Z,99778.94
2022-12-22T11:31:22.072Z,99757.53
2022-12-22T11:33:51.209Z,99752.81
2022-12-22T11:35:59.865Z,99751.56
2022-12-22T11:38:27.863Z,99743.66
2022-12-22T11:40:35.166Z,99742.81
2022-12-22T11:42:57.456Z,99742.69
2022-12-22T11:45:22.943Z,99728.00
2022-12-22T11:47:52.335Z,99739.91
2022-12-22T11:50:58.601Z,99736.78
2022-12-22T11:53:04.820Z,99735.41
2022-12-22T11:55:22.252Z,99742.41
2022-12-22T11:57:45.487Z,99742.69
2022-12-22T12:00:18.929Z,99745.22
2022-12-22T12:03:00.346Z,99737.53
2022-12-22T12:05:16.067Z,99736.69
2022-12-22T12:07:54.540Z,99729.34
2022-12-22T12:10:15.847Z,99726.66
2022-12-22T12:12:31.266Z,99727.97
2022-12-22T12:14:44.588Z,99737.91
2022-12-22T12:17:05.613Z,99740.25
2022-12-22T12:19:28.300Z,99751.72
2022-12-22T12:22:01.217Z,99757.97
2022-12-22T12:24:12.250Z,99736.91
2022-12-22T12:26:35.510Z,99722.38
2022-12-22T12:29:01.720Z,99718.63
2022-12-22T12:31:06.233Z,99719.28
2022-12-22T12:33:23.328Z,99701.50
2022-12-22T12:35:27.865Z,99710.16
2022-12-22T12:37:34.662Z,99705.53
2022-12-22T12:40:05.998Z,99707.72
2022-12-22T12:42:19.975Z,99709.00
2022-12-22T12:44:29.138Z,99710.97
2022-12-22T12:46:57.450Z,99712.09
2022-12-22T12:49:01.163Z,99717.81
2022-12-22T12:51:03.191Z,99719.34
2022-12-22T12:53:10.477Z,99714.91
2022-12-22T12:55:29.749Z,99708.97
2022-12-22T12:57:49.054Z,99698.72
2022-12-22T12:59:55.170Z,99699.56
2022-12-22T13:01:59.938Z,99698.66
2022-12-22T13:04:04.789Z,99702.81
2022-12-22T13:06:10.242Z,99704.50
2022-12-22T13:08:33.359Z,99704.41
2022-12-22T13:10:37.336Z,99715.38
2022-12-22T13:12:58.625Z,99734.06
2022-12-22T13:15:02.113Z,99717.19
2022-12-22T13:17:50.543Z,99718.81
2022-12-22T13:19:53.632Z,99706.78
2022-12-22T13:21:58.142Z,99689.81
2022-12-22T13:24:24.012Z,99687.25
2022-12-22T13:26:32.920Z,99688.88
2022-12-22T13:28:40.669Z,99687.28
2022-12-22T13:30:50.754Z,99690.66
2022-12-22T13:32:53.196Z,99699.25
2022-12-22T13:35:30.953Z,99692.66
2022-12-22T13:37:57.635Z,99679.13
2022-12-22T13:40:33.064Z,99680.75
2022-12-22T13:42:42.235Z,99677.44
2022-12-22T13:44:44.456Z,99671.59
2022-12-22T13:46:52.579Z,99670.22
2022-12-22T13:48:57.650Z,99676.06
2022-12-22T13:51:03.304Z,99684.50
2022-12-22T13:53:08.504Z,99677.72
2022-12-22T13:55:16.079Z,99675.34
2022-12-22T13:57:25.236Z,99670.31
2022-12-22T13:59:35.725Z,99661.97
2022-12-22T14:01:50.558Z,99659.63
2022-12-22T14:04:02.595Z,99641.94
2022-12-22T14:06:43.146Z,99647.78
2022-12-22T14:08:48.881Z,99646.91
2022-12-22T14:10:52.392Z,99642.81
2022-12-22T14:12:54.672Z,99633.47
2022-12-22T14:15:01.472Z,99630.22
2022-12-22T14:17:05.005Z,99620.81
2022-12-22T14:19:07.092Z,99617.34
2022-12-22T14:21:10.668Z,99616.59
2022-12-22T14:23:24.963Z,99621.84
2022-12-22T14:25:40.593Z,99615.91
2022-12-22T14:27:53.505Z,99621.13
2022-12-22T14:30:00.748Z,99621.06
2022-12-22T14:32:04.195Z,99622.84
2022-12-22T14:34:25.717Z,99624.78
2022-12-22T14:36:40.807Z,99624.22
2022-12-22T14:38:48.535Z,99627.63
2022-12-22T14:40:57.207Z,99627.47
2022-12-22T14:43:04.519Z,99627.53
2022-12-22T14:45:15.331Z,99624.69
2022-12-22T14:47:23.585Z,99612.19
2022-12-22T14:49:25.782Z,99623.25
2022-12-22T14:51:32.106Z,99619.13
2022-12-22T14:53:45.708Z,99610.47
2022-12-22T14:56:00.521Z,99614.75
2022-12-22T14:58:31.445Z,99612.03
2022-12-22T15:00:45.435Z,99612.97
2022-12-22T15:03:00.217Z,99599.28
2022-12-22T15:05:37.748Z,99593.16
2022-12-22T15:08:07.279Z,99601.72
2022-12-22T15:10:15.687Z,99597.38
2022-12-22T15:12:19.107Z,99599.91
2022-12-22T15:14:26.969Z,99596.44
2022-12-22T15:16:29.218Z,99597.16
2022-12-22T15:18:32.942Z,99603.81
2022-12-22T15:20:39.330Z,99598.06
2022-12-22T15:22:41.832Z,99591.22
2022-12-22T15:24:44.829Z,99595.69
2022-12-22T15:26:47.133Z,99596.31
2022-12-22T15:28:49.215Z,99587.91
2022-12-22T15:30:51.341Z,99581.19
2022-12-22T15:32:55.203Z,99580.59
2022-12-22T15:34:57.246Z,99581.56
2022-12-22T15:36:59.406Z,99574.56
2022-12-22T15:39:02.366Z,99569.47
2022-12-22T15:41:05.093Z,99562.97
2022-12-22T15:43:17.346Z,99566.66
2022-12-22T15:45:30.154Z,99569.03
2022-12-22T15:47:34.139Z,99563.19
2022-12-22T15:49:36.295Z,99560.25
2022-12-22T15:51:38.408Z,99563.41
2022-12-22T15:53:40.392Z,99557.50
2022-12-22T15:55:45.125Z,99554.84
2022-12-22T15:57:49.767Z,99559.13
2022-12-22T15:59:53.923Z,99560.00
2022-12-22T16:02:01.454Z,99556.78
2022-12-22T16:04:04.337Z,99555.91
2022-12-22T16:06:14.013Z,99550.91
2022-12-22T16:08:20.777Z,99550.25
2022-12-22T16:10:27.102Z,99540.69
2022-12-22T16:12:31.157Z,99540.56
2022-12-22T16:14:38.873Z,99536.50
2022-12-22T16:16:44.390Z,99531.41
2022-12-22T16:18:47.373Z,99534.97
2022-12-22T16:20:53.015Z,99536.88
2022-12-22T16:22:55.077Z,99538.69
2022-12-22T16:24:57.326Z,99538.22
2022-12-22T16:27:00.709Z,99531.28
2022-12-22T16:29:03.795Z,99534.69
2022-12-22T16:31:21.905Z,99532.94
2022-12-22T16:33:24.058Z,99533.47
2022-12-22T16:35:29.343Z,99534.25
2022-12-22T16:37:31.421Z,99541.91
2022-12-22T16:39:33.613Z,99537.66
2022-12-22T16:41:36.165Z,99535.13
2022-12-22T16:43:51.596Z,99530.94
2022-12-22T16:45:53.760Z,99537.13
2022-12-22T16:47:59.851Z,99538.91
2022-12-22T16:50:02.355Z,99536.28
2022-12-22T16:52:04.606Z,99533.81
2022-12-22T16:54:06.590Z,99527.28
2022-12-22T16:56:15.042Z,99528.38
2022-12-22T16:58:19.119Z,99530.16
2022-12-22T17:00:24.716Z,99529.03
2022-12-22T17:02:31.811Z,99527.28
2022-12-22T17:04:34.028Z,99530.00
2022-12-22T17:06:38.256Z,99534.13
2022-12-22T17:08:43.581Z,99520.47
2022-12-22T17:10:45.773Z,99520.59
2022-12-22T17:12:50.356Z,99519.81
2022-12-22T17:14:53.487Z,99502.88
2022-12-22T17:16:55.430Z,99505.44
2022-12-22T17:18:57.494Z,99504.53
2022-12-22T17:21:00.781Z,99506.22
2022-12-22T17:23:03.790Z,99506.41
2022-12-22T17:25:18.444Z,99506.47
2022-12-22T17:27:26.334Z,99504.72
2022-12-22T17:29:28.591Z,99502.16
2022-12-22T17:31:30.706Z,99500.97
2022-12-22T17:33:33.989Z,99501.06
2022-12-22T17:35:37.686Z,99494.13
2022-12-22T17:37:44.522Z,99490.13
2022-12-22T17:39:49.420Z,99492.75
2022-12-22T17:41:56.758Z,99499.66
2022-12-22T17:43:59.422Z,99497.84
2022-12-22T17:46:01.392Z,99492.75
2022-12-22T17:48:03.588Z,99491.06
2022-12-22T17:50:06.793Z,99493.72
2022-12-22T17:52:23.895Z,99496.28
2022-12-22T17:54:27.700Z,99484.38
2022-12-22T17:56:31.271Z,99488.69
2022-12-22T17:58:34.298Z,99483.53
2022-12-22T18:00:38.628Z,99482.63
2022-12-22T18:02:40.850Z,99476.84
2022-12-22T18:04:43.066Z,99473.50
2022-12-22T18:06:46.203Z,99470.03
2022-12-22T18:08:55.287Z,99472.72
2022-12-22T18:10:57.349Z,99479.81
2022-12-22T18:13:01.808Z,99471.25
2022-12-22T18:15:15.865Z,99464.44
2022-12-22T18:17:35.598Z,99466.75
2022-12-22T18:19:48.035Z,99465.19
2022-12-22T18:21:50.214Z,99459.34
2022-12-22T18:23:52.695Z,99460.19
2022-12-22T18:25:56.660Z,99460.09
2022-12-22T18:27:59.129Z,99464.28
2022-12-22T18:30:01.081Z,99459.22
2022-12-22T18:32:03.118Z,99460.66
2022-12-22T18:34:05.113Z,99463.97
2022-12-22T18:36:11.174Z,99460.19
2022-12-22T18:38:28.555Z,99459.31
2022-12-22T18:40:35.432Z,99460.34
2022-12-22T18:42:37.488Z,99465.28
2022-12-22T18:44:41.471Z,99464.41
2022-12-22T18:46:45.006Z,99456.75
2022-12-22T18:48:48.699Z,99460.19
2022-12-22T18:50:51.435Z,99465.16
2022-12-22T18:52:54.307Z,99458.38
2022-12-22T18:54:56.378Z,99459.06
2022-12-22T18:56:58.791Z,99460.88
2022-12-22T18:59:00.816Z,99452.13
2022-12-22T19:01:04.050Z,99455.47
2022-12-22T19:03:16.792Z,99451.22
2022-12-22T19:05:24.739Z,99450.50
2022-12-22T19:07:27.180Z,99444.56
2022-12-22T19:09:29.370Z,99439.44
2022-12-22T19:11:32.935Z,99433.56
2022-12-22T19:13:41.039Z,99436.88
2022-12-22T19:15:44.417Z,99438.47
2022-12-22T19:17:46.517Z,99435.16
2022-12-22T19:19:51.729Z,99435.16
2022-12-22T19:21:55.092Z,99431.56
2022-12-22T19:23:57.638Z,99429.78
2022-12-22T19:26:08.325Z,99433.19
2022-12-22T19:28:14.445Z,99433.97
2022-12-22T19:30:20.149Z,99429.78
2022-12-22T19:32:29.688Z,99432.16
2022-12-22T19:34:32.327Z,99428.88
2022-12-22T19:36:36.727Z,99424.50
2022-12-22T19:38:39.008Z,99435.63
2022-12-22T19:40:41.238Z,99421.09
2022-12-22T19:42:55.237Z,99423.66
2022-12-22T19:44:57.146Z,99419.47
2022-12-22T19:47:02.682Z,99422.88
2022-12-22T19:49:04.662Z,99421.28
2022-12-22T19:51:06.736Z,99418.56
2022-12-22T19:53:12.199Z,99413.47
2022-12-22T19:55:14.822Z,99410.06
2022-12-22T19:57:22.547Z,99405.19
2022-12-22T19:59:38.788Z,99406.78
2022-12-22T20:01:41.390Z,99403.53
2022-12-22T20:03:43.551Z,99404.44
2022-12-22T20:05:46.663Z,99412.09
2022-12-22T20:07:49.789Z,99400.31
2022-12-22T20:09:52.099Z,99394.41
2022-12-22T20:11:54.255Z,99389.34
2022-12-22T20:13:56.475Z,99390.13
2022-12-22T20:16:00.412Z,99386.16
2022-12-22T20:18:17.232Z,99393.03
2022-12-22T20:20:36.852Z,99385.50
2022-12-22T20:22:40.046Z,99390.78
2022-12-22T20:24:43.842Z,99391.69
2022-12-22T20:26:54.130Z,99385.72
2022-12-22T20:28:56.904Z,99386.53
2022-12-22T20:30:59.804Z,99394.06
2022-12-22T20:33:02.388Z,99392.19
2022-12-22T20:35:04.772Z,99380.28
2022-12-22T20:37:13.051Z,99384.47
2022-12-22T20:39:18.552Z,99380.28
2022-12-22T20:41:22.265Z,99383.44
2022-12-22T20:43:26.759Z,99384.41
2022-12-22T20:45:32.045Z,99382.00
2022-12-22T20:47:35.183Z,99381.06
2022-12-22T20:49:37.368Z,99379.50
2022-12-22T20:51:39.566Z,99387.81
2022-12-22T20:53:42.660Z,99389.44
2022-12-22T20:55:47.247Z,99386.19
2022-12-22T20:57:55.654Z,99386.22
2022-12-22T20:59:57.586Z,99392.19
2022-12-22T21:01:59.742Z,99383.56
2022-12-22T21:04:01.833Z,99388.59
2022-12-22T21:06:20.852Z,99393.69
2022-12-22T21:08:25.627Z,99385.31
2022-12-22T21:10:27.618Z,99387.03
2022-12-22T21:12:40.408Z,99397.28
2022-12-22T21:14:52.190Z,99387.94
2022-12-22T21:16:54.430Z,99389.75
2022-12-22T21:19:20.359Z,99385.44
2022-12-22T21:21:26.048Z,99383.81
2022-12-22T21:23:30.408Z,99388.09
2022-12-22T21:25:32.565Z,99392.38
2022-12-22T21:27:42.041Z,99383.97
2022-12-22T21:29:44.173Z,99389.03
2022-12-22T21:31:47.252Z,99385.72
2022-12-22T21:33:50.439Z,99386.03
2022-12-22T21:35:59.970Z,99381.63
2022-12-22T21:38:02.187Z,99380.19
2022-12-22T21:40:04.664Z,99376.84
2022-12-22T21:42:15.516Z,99380.13
2022-12-22T21:44:19.848Z,99369.03
2022-12-22T21:46:26.872Z,99375.88
2022-12-22T21:48:31.911Z,99373.94
2022-12-22T21:50:38.111Z,99370.44
2022-12-22T21:52:40.039Z,99368.97
2022-12-22T21:54:42.923Z,99369.69
2022-12-22T21:56:56.499Z,99375.78
2022-12-22T21:59:05.945Z,99379.19
2022-12-22T22:01:15.955Z,99375.78
2022-12-22T22:03:21.557Z,99374.28
2022-12-22T22:05:26.325Z,99377.75
2022-12-22T22:07:30.907Z,99373.59
2022-12-22T22:09:39.002Z,99376.16
2022-12-22T22:12:02.250Z,99377.75
2022-12-22T22:14:09.287Z,99374.31
2022-12-22T22:16:16.417Z,99368.97
2022-12-22T22:18:25.518Z,99370.53
2022-12-22T22:20:35.155Z,99371.63
2022-12-22T22:22:37.167Z,99368.91
2022-12-22T22:24:41.812Z,99367.16
2022-12-22T22:26:52.770Z,99355.03
2022-12-22T22:28:56.748Z,99365.97
2022-12-22T22:30:58.987Z,99359.78
2022-12-22T22:33:06.398Z,99360.56
2022-12-22T22:35:15.319Z,99363.00
2022-12-22T22:37:19.086Z,99369.75
2022-12-22T22:39:27.231Z,99367.19
2022-12-22T22:41:35.253Z,99367.19
2022-12-22T22:43:39.746Z,99375.69
2022-12-22T22:45:42.491Z,99371.50
2022-12-22T22:47:44.580Z,99365.38
2022-12-22T22:49:47.537Z,99362.88
2022-12-22T22:51:49.595Z,99367.72
2022-12-22T22:53:54.368Z,99372.97
2022-12-22T22:56:02.125Z,99378.16
2022-12-22T22:58:08.735Z,99369.59
2022-12-22T23:00:22.057Z,99366.16
2022-12-22T23:02:28.216Z,99367.88
2022-12-22T23:04:34.872Z,99364.41
2022-12-22T23:06:37.876Z,99375.50
2022-12-22T23:08:39.922Z,99368.56
2022-12-22T23:10:50.349Z,99371.97
2022-12-22T23:12:54.925Z,99371.31
2022-12-22T23:15:02.028Z,99381.69
2022-12-22T23:17:04.371Z,99370.47
2022-12-22T23:19:06.785Z,99384.16
2022-12-22T23:21:09.769Z,99377.28
2022-12-22T23:23:11.772Z,99375.75
2022-12-22T23:25:13.771Z,99384.16
2022-12-22T23:27:15.694Z,99376.53
2022-12-22T23:29:17.606Z,99381.59
2022-12-22T23:31:19.520Z,99374.94
2022-12-22T23:33:22.048Z,99382.59
2022-12-22T23:35:23.980Z,99378.41
2022-12-22T23:37:26.914Z,99374.22
2022-12-22T23:39:29.849Z,99375.88
2022-12-22T23:41:31.905Z,99375.13
2022-12-22T23:43:34.260Z,99376.84
2022-12-22T23:45:38.580Z,99369.19
2022-12-22T23:47:40.947Z,99374.22
2022-12-22T23:49:42.926Z,99371.97
2022-12-22T23:51:44.807Z,99365.97
2022-12-22T23:53:46.716Z,99365.97
2022-12-22T23:55:50.186Z,99365.88
2022-12-22T23:57:53.903Z,99368.53
2022-12-22T23:59:55.776Z,99368.56
